ENGLEBRIGHT (USACE) (ENG)

Elevation: 551' · YUBA R basin · Operator: US Army Corps of Engineers

Provisional data, subject to change.
Query executed Thursday at 9:26:01   clock

Select a sensor type for a plot of data.
Note: Reservoir Flows are daily averages.

Earlier

Date RES ELE    STORAGE    RES CHG    OUTFLOW    INFLOW    PPT INC   
 FEET   AF   AF   CFS   CFS   INCHES  
10/01/2014 519.75 64242 404 -- 1500 0.00
10/02/2014 520.61 64901 659 -- 1628 0.00
10/03/2014 521.44 65542 641 -- 1621 0.00
10/04/2014 522.03 66000 458 -- 1530 0.00
10/05/2014 522.59 66438 438 -- 1522 0.00
10/06/2014 523.24 66948 510 -- 257 0.00
10/07/2014 523.55 67193 245 -- 1455 0.00
10/08/2014 523.40 67074 -119 -- 1284 0.00
10/09/2014 522.88 66665 -409 -- 1135 0.00
10/10/2014 521.49 65580 -1085 -- 802 0.00
10/11/2014 520.59 64885 -695 -- 1161 0.00
10/12/2014 519.50 64051 -834 -- -420 0.00
10/13/2014 518.99 63664 -387 -- 1171 0.00
10/14/2014 518.71 63452 -212 -- 1006 0.00
10/15/2014 517.99 62909 -543 -- 463 0.26
10/16/2014 518.91 63603 694 -- 350 0.00
10/17/2014 519.60 64127 524 -- 1052 0.00
10/18/2014 519.39 63967 -160 -- 722 0.00
10/19/2014 519.44 64005 38 -- 835 0.00
10/20/2014 519.30 63899 -106 -- 748 0.12
10/21/2014 518.61 63376 -523 -- 542 0.00
10/22/2014 520.25 64624 1248 -- 1439 0.00
10/23/2014 521.97 65953 1329 -- 1483 0.00
10/24/2014 522.35 66250 297 -- 967 0.00
10/25/2014 522.33 66234 -16 -- 808 0.13
10/26/2014 522.12 66070 -164 -- 733 0.00
10/27/2014 522.29 66203 133 -- 882 0.00
10/28/2014 522.37 66265 62 -- 31 0.00
10/29/2014 522.61 66453 188 -- -- --
10/30/2014 -- -- -- -- -- --

Later | Latest

Warning! This data is preliminary and subject to revision.

Show ENG Map | Plot ENG Data | 1 Month ENG Data | Real-Time ENG Data | ENG Info